createdAt,value
2022-09-24T00:00:00.435Z,0.00
2022-09-24T00:01:00.459Z,0.00
2022-09-24T00:02:00.573Z,0.00
2022-09-24T00:03:00.539Z,0.00
2022-09-24T00:04:00.574Z,0.00
2022-09-24T00:05:00.371Z,0.00
2022-09-24T00:06:00.396Z,0.00
2022-09-24T00:07:00.354Z,0.00
2022-09-24T00:08:00.341Z,0.00
2022-09-24T00:09:00.337Z,0.00
2022-09-24T00:10:00.318Z,0.00
2022-09-24T00:11:00.348Z,0.00
2022-09-24T00:12:00.292Z,0.00
2022-09-24T00:13:00.261Z,0.00
2022-09-24T00:14:00.292Z,0.00
2022-09-24T00:15:00.244Z,0.00
2022-09-24T00:16:00.296Z,0.00
2022-09-24T00:17:00.218Z,0.00
2022-09-24T00:18:00.212Z,0.00
2022-09-24T00:19:00.202Z,0.00
2022-09-24T00:20:00.208Z,0.00
2022-09-24T00:21:00.212Z,0.00
2022-09-24T00:22:00.166Z,0.00
2022-09-24T00:23:00.174Z,0.00
2022-09-24T00:24:00.154Z,0.00
2022-09-24T00:25:00.154Z,0.00
2022-09-24T00:26:00.191Z,0.00
2022-09-24T00:27:00.133Z,0.00
2022-09-24T00:28:00.119Z,0.00
2022-09-24T00:29:00.092Z,0.00
2022-09-24T00:30:00.109Z,0.00
2022-09-24T00:31:00.159Z,0.00
2022-09-24T00:32:00.075Z,0.00
2022-09-24T00:33:00.075Z,0.00
2022-09-24T00:34:00.057Z,0.00
2022-09-24T00:35:00.030Z,0.00
2022-09-24T00:36:00.052Z,0.00
2022-09-24T00:37:00.036Z,0.00
2022-09-24T00:37:59.995Z,0.00
2022-09-24T00:39:00.003Z,0.00
2022-09-24T00:39:59.973Z,0.00
2022-09-24T00:41:00.005Z,0.00
2022-09-24T00:41:59.955Z,0.00
2022-09-24T00:42:59.938Z,0.00
2022-09-24T00:43:59.930Z,0.00
2022-09-24T00:44:59.916Z,0.00
2022-09-24T00:45:59.938Z,0.00
2022-09-24T00:46:59.955Z,0.00
2022-09-24T00:47:59.881Z,0.00
2022-09-24T00:48:59.859Z,0.00
2022-09-24T00:49:59.845Z,0.00
2022-09-24T00:50:59.883Z,0.00
2022-09-24T00:51:59.830Z,0.00
2022-09-24T00:52:59.839Z,0.00
2022-09-24T00:53:59.816Z,0.00
2022-09-24T00:54:59.817Z,0.00
2022-09-24T00:55:59.838Z,0.00
2022-09-24T00:56:59.793Z,0.00
2022-09-24T00:57:59.776Z,0.00
2022-09-24T00:58:59.756Z,0.00
2022-09-24T00:59:59.745Z,0.00
2022-09-24T01:00:59.835Z,0.00
2022-09-24T01:01:59.755Z,0.00
2022-09-24T01:02:59.709Z,0.00
2022-09-24T01:03:59.717Z,0.00
2022-09-24T01:04:59.712Z,0.00
2022-09-24T01:05:59.724Z,0.00
2022-09-24T01:06:59.682Z,0.00
2022-09-24T01:07:59.645Z,0.00
2022-09-24T01:08:59.643Z,0.00
2022-09-24T01:09:59.630Z,0.00
2022-09-24T01:10:59.675Z,0.00
2022-09-24T01:11:59.608Z,0.00
2022-09-24T01:12:59.614Z,0.00
2022-09-24T01:13:59.585Z,0.00
2022-09-24T01:14:59.572Z,0.00
2022-09-24T01:15:59.625Z,0.00
2022-09-24T01:16:59.552Z,0.00
2022-09-24T01:17:59.583Z,0.00
2022-09-24T01:18:59.540Z,0.00
2022-09-24T01:19:59.497Z,0.00
2022-09-24T01:20:59.535Z,0.00
2022-09-24T01:21:59.486Z,0.00
2022-09-24T01:22:59.476Z,0.00
2022-09-24T01:23:59.472Z,0.00
2022-09-24T01:24:59.464Z,0.00
2022-09-24T01:25:59.495Z,0.00
2022-09-24T01:26:59.438Z,0.00
2022-09-24T01:27:59.442Z,0.00
2022-09-24T01:28:59.423Z,0.00
2022-09-24T01:29:59.406Z,0.00
2022-09-24T01:30:59.565Z,0.00
2022-09-24T01:31:59.392Z,0.00
2022-09-24T01:32:59.376Z,0.00
2022-09-24T01:33:59.376Z,0.00
2022-09-24T01:34:59.353Z,0.00
2022-09-24T01:35:59.374Z,0.00
2022-09-24T01:36:59.339Z,0.00
2022-09-24T01:37:59.319Z,0.00
2022-09-24T01:38:59.310Z,0.00
2022-09-24T01:39:59.290Z,0.00
2022-09-24T01:40:59.320Z,0.00
2022-09-24T01:41:59.267Z,0.00
2022-09-24T01:42:59.254Z,0.00
2022-09-24T01:43:59.275Z,0.00
2022-09-24T01:44:59.224Z,0.00
2022-09-24T01:45:59.265Z,0.00
2022-09-24T01:46:59.294Z,0.00
2022-09-24T01:47:59.189Z,0.00
2022-09-24T01:48:59.196Z,0.00
2022-09-24T01:49:59.176Z,0.00
2022-09-24T01:50:59.196Z,0.00
2022-09-24T01:51:59.134Z,0.00
2022-09-24T01:52:59.130Z,0.00
2022-09-24T01:53:59.109Z,0.00
2022-09-24T01:54:59.123Z,0.00
2022-09-24T01:55:59.138Z,0.00
2022-09-24T01:56:59.095Z,0.00
2022-09-24T01:57:59.092Z,0.00
2022-09-24T01:58:59.078Z,0.00
2022-09-24T01:59:59.070Z,0.00
2022-09-24T02:00:59.161Z,0.00
2022-09-24T02:01:59.103Z,0.00
2022-09-24T02:02:59.051Z,0.00
2022-09-24T02:03:59.014Z,0.00
2022-09-24T02:04:58.999Z,0.00
2022-09-24T02:05:59.026Z,0.00
2022-09-24T02:06:58.992Z,0.00
2022-09-24T02:07:58.979Z,0.00
2022-09-24T02:08:58.959Z,0.00
2022-09-24T02:09:58.952Z,0.00
2022-09-24T02:10:58.981Z,0.00
2022-09-24T02:11:58.927Z,0.00
2022-09-24T02:12:58.912Z,0.00
2022-09-24T02:13:58.890Z,0.00
2022-09-24T02:14:58.899Z,0.00
2022-09-24T02:15:58.985Z,0.00
2022-09-24T02:16:58.870Z,0.00
2022-09-24T02:17:58.850Z,0.00
2022-09-24T02:18:58.855Z,0.00
2022-09-24T02:19:58.834Z,0.00
2022-09-24T02:20:58.862Z,0.00
2022-09-24T02:21:58.793Z,0.00
2022-09-24T02:22:58.807Z,0.00
2022-09-24T02:23:58.779Z,0.00
2022-09-24T02:24:58.760Z,0.00
2022-09-24T02:25:58.783Z,0.00
2022-09-24T02:26:58.736Z,0.00
2022-09-24T02:27:58.744Z,0.00
2022-09-24T02:28:58.719Z,0.00
2022-09-24T02:29:58.717Z,0.00
2022-09-24T02:30:58.768Z,0.00
2022-09-24T02:31:58.688Z,0.00
2022-09-24T02:32:58.696Z,0.00
2022-09-24T02:33:58.664Z,0.00
2022-09-24T02:34:58.668Z,0.00
2022-09-24T02:35:58.674Z,0.00
2022-09-24T02:36:58.635Z,0.00
2022-09-24T02:38:01.651Z,0.00
2022-09-24T02:38:59.620Z,0.00
2022-09-24T02:39:58.604Z,0.00
2022-09-24T02:40:58.723Z,0.00
2022-09-24T02:41:58.597Z,0.00
2022-09-24T02:42:58.575Z,0.00
2022-09-24T02:43:58.543Z,0.00
2022-09-24T02:44:58.554Z,0.00
2022-09-24T02:45:58.573Z,0.00
2022-09-24T02:46:58.609Z,0.00
2022-09-24T02:47:58.518Z,0.00
2022-09-24T02:48:58.514Z,0.00
2022-09-24T02:49:58.501Z,0.00
2022-09-24T02:50:58.512Z,0.00
2022-09-24T02:51:58.471Z,0.00
2022-09-24T02:52:58.454Z,0.00
2022-09-24T02:53:58.455Z,0.00
2022-09-24T02:54:58.435Z,0.00
2022-09-24T02:55:58.411Z,0.00
2022-09-24T02:56:58.445Z,0.00
2022-09-24T02:57:58.381Z,0.00
2022-09-24T02:58:58.396Z,0.00
2022-09-24T02:59:58.372Z,0.00
2022-09-24T03:00:58.410Z,0.00
2022-09-24T03:01:58.497Z,0.00
2022-09-24T03:02:58.394Z,0.00
2022-09-24T03:03:58.323Z,0.00
2022-09-24T03:04:58.318Z,0.00
2022-09-24T03:05:58.315Z,0.00
2022-09-24T03:06:58.341Z,0.00
2022-09-24T03:07:58.283Z,0.00
2022-09-24T03:08:58.279Z,0.00
2022-09-24T03:09:58.266Z,0.00
2022-09-24T03:10:58.265Z,0.00
2022-09-24T03:11:58.280Z,0.00
2022-09-24T03:12:58.247Z,0.00
2022-09-24T03:13:58.216Z,0.00
2022-09-24T03:14:58.218Z,0.00
2022-09-24T03:15:58.241Z,0.00
2022-09-24T03:16:58.224Z,0.00
2022-09-24T03:17:58.175Z,0.00
2022-09-24T03:18:58.163Z,0.00
2022-09-24T03:19:58.155Z,0.00
2022-09-24T03:20:58.138Z,0.00
2022-09-24T03:21:58.149Z,0.00
2022-09-24T03:22:58.119Z,0.00
2022-09-24T03:23:58.112Z,0.00
2022-09-24T03:24:58.088Z,0.00
2022-09-24T03:25:59.014Z,0.00
2022-09-24T03:26:58.097Z,0.00
2022-09-24T03:27:58.033Z,0.00
2022-09-24T03:28:58.027Z,0.00
2022-09-24T03:29:58.019Z,0.00
2022-09-24T03:30:58.049Z,0.00
2022-09-24T03:31:58.153Z,0.00
2022-09-24T03:32:58.016Z,0.00
2022-09-24T03:33:57.993Z,0.00
2022-09-24T03:34:57.971Z,0.00
2022-09-24T03:35:57.947Z,0.00
2022-09-24T03:36:58.002Z,0.00
2022-09-24T03:37:57.954Z,0.00
2022-09-24T03:38:57.939Z,0.00
2022-09-24T03:39:57.941Z,0.00
2022-09-24T03:40:58.021Z,0.00
2022-09-24T03:41:57.937Z,0.00
2022-09-24T03:42:57.896Z,0.00
2022-09-24T03:43:57.873Z,0.00
2022-09-24T03:44:57.878Z,0.00
2022-09-24T03:45:57.845Z,0.00
2022-09-24T03:46:57.950Z,0.00
2022-09-24T03:47:57.835Z,0.00
2022-09-24T03:48:57.812Z,0.00
2022-09-24T03:49:57.812Z,0.00
2022-09-24T03:50:57.799Z,0.00
2022-09-24T03:51:57.822Z,0.00
2022-09-24T03:52:57.783Z,0.00
2022-09-24T03:53:57.775Z,0.00
2022-09-24T03:54:57.758Z,0.00
2022-09-24T03:55:57.742Z,0.00
2022-09-24T03:56:57.753Z,0.00
2022-09-24T03:57:57.711Z,0.00
2022-09-24T03:58:57.699Z,0.00
2022-09-24T03:59:57.675Z,0.00
2022-09-24T04:00:57.676Z,0.00
2022-09-24T04:01:57.758Z,0.00
2022-09-24T04:02:57.701Z,0.00
2022-09-24T04:03:57.654Z,0.00
2022-09-24T04:04:57.637Z,0.00
2022-09-24T04:05:57.626Z,0.00
2022-09-24T04:06:57.662Z,0.00
2022-09-24T04:07:57.611Z,0.00
2022-09-24T04:08:57.607Z,0.00
2022-09-24T04:09:57.587Z,0.00
2022-09-24T04:10:57.566Z,0.00
2022-09-24T04:11:57.587Z,0.00
2022-09-24T04:12:57.537Z,0.00
2022-09-24T04:13:57.531Z,0.00
2022-09-24T04:14:57.523Z,0.00
2022-09-24T04:15:57.529Z,0.00
2022-09-24T04:16:57.570Z,0.00
2022-09-24T04:17:57.495Z,0.00
2022-09-24T04:18:57.475Z,0.00
2022-09-24T04:19:57.452Z,4.00
2022-09-24T04:20:57.442Z,4.00
2022-09-24T04:21:57.436Z,4.00
2022-09-24T04:22:57.469Z,0.00
2022-09-24T04:23:57.419Z,4.00
2022-09-24T04:24:57.404Z,4.00
2022-09-24T04:25:57.391Z,4.00
2022-09-24T04:26:57.381Z,8.00
2022-09-24T04:27:57.401Z,8.00
2022-09-24T04:28:57.369Z,12.00
2022-09-24T04:29:57.344Z,12.00
2022-09-24T04:30:57.429Z,16.00
2022-09-24T04:31:57.310Z,20.00
2022-09-24T04:32:57.345Z,20.00
2022-09-24T04:33:57.290Z,24.00
2022-09-24T04:34:57.293Z,28.00
2022-09-24T04:35:57.290Z,32.00
2022-09-24T04:36:57.274Z,40.00
2022-09-24T04:37:57.289Z,48.00
2022-09-24T04:38:57.248Z,52.00
2022-09-24T04:39:57.243Z,60.00
2022-09-24T04:40:57.258Z,72.00
2022-09-24T04:41:57.200Z,80.00
2022-09-24T04:42:57.235Z,88.00
2022-09-24T04:43:57.196Z,100.00
2022-09-24T04:44:57.183Z,112.00
2022-09-24T04:45:57.161Z,124.00
2022-09-24T04:46:57.250Z,136.00
2022-09-24T04:47:57.178Z,148.00
2022-09-24T04:48:57.128Z,164.00
2022-09-24T04:49:57.112Z,180.00
2022-09-24T04:50:57.113Z,196.00
2022-09-24T04:51:57.105Z,212.00
2022-09-24T04:52:57.122Z,236.00
2022-09-24T04:53:57.095Z,260.00
2022-09-24T04:54:57.058Z,280.00
2022-09-24T04:55:57.052Z,308.00
2022-09-24T04:56:57.038Z,340.00
2022-09-24T04:57:57.069Z,368.00
2022-09-24T04:58:57.015Z,404.00
2022-09-24T04:59:57.015Z,432.00
2022-09-24T05:00:56.998Z,468.00
2022-09-24T05:01:57.123Z,508.00
2022-09-24T05:02:57.047Z,560.00
2022-09-24T05:03:56.967Z,620.00
2022-09-24T05:04:56.946Z,680.00
2022-09-24T05:05:56.932Z,744.00
2022-09-24T05:06:56.921Z,812.00
2022-09-24T05:07:56.997Z,880.00
2022-09-24T05:08:56.927Z,944.00
2022-09-24T05:09:56.899Z,1012.00
2022-09-24T05:10:56.873Z,1084.00
2022-09-24T05:11:56.892Z,1164.00
2022-09-24T05:12:56.914Z,1256.00
2022-09-24T05:13:56.870Z,1344.00
2022-09-24T05:14:56.836Z,1444.00
2022-09-24T05:15:56.873Z,1544.00
2022-09-24T05:16:56.796Z,1668.00
2022-09-24T05:17:56.811Z,1804.00
2022-09-24T05:18:56.824Z,1924.00
2022-09-24T05:19:56.782Z,2040.00
2022-09-24T05:20:56.772Z,2140.00
2022-09-24T05:21:56.846Z,2236.00
2022-09-24T05:22:56.744Z,2320.00
2022-09-24T05:23:56.760Z,2388.00
2022-09-24T05:24:56.723Z,2412.00
2022-09-24T05:25:56.722Z,2444.00
2022-09-24T05:26:56.685Z,2492.00
2022-09-24T05:27:56.735Z,2576.00
2022-09-24T05:28:56.671Z,2688.00
2022-09-24T05:29:56.681Z,2824.00
2022-09-24T05:30:56.720Z,2996.00
2022-09-24T05:31:56.642Z,3200.00
2022-09-24T05:32:56.675Z,3448.00
2022-09-24T05:33:56.623Z,3720.00
2022-09-24T05:34:56.618Z,4000.00
2022-09-24T05:35:56.591Z,4248.00
2022-09-24T05:36:56.574Z,4456.00
2022-09-24T05:37:56.605Z,4612.00
2022-09-24T05:38:56.588Z,4748.00
2022-09-24T05:39:56.565Z,4820.00
2022-09-24T05:40:56.634Z,4860.00
2022-09-24T05:41:56.543Z,4884.00
2022-09-24T05:42:56.564Z,4924.00
2022-09-24T05:43:56.524Z,4976.00
2022-09-24T05:44:56.502Z,5036.00
2022-09-24T05:45:56.507Z,5092.00
2022-09-24T05:46:56.559Z,5128.00
2022-09-24T05:47:56.521Z,5128.00
2022-09-24T05:48:56.468Z,5120.00
2022-09-24T05:49:56.460Z,5112.00
2022-09-24T05:50:56.438Z,5092.00
2022-09-24T05:51:56.427Z,5080.00
2022-09-24T05:52:56.449Z,5072.00
2022-09-24T05:53:56.393Z,5068.00
2022-09-24T05:54:56.386Z,5072.00
2022-09-24T05:55:56.374Z,5076.00
2022-09-24T05:56:56.364Z,5088.00
2022-09-24T05:57:56.348Z,5100.00
2022-09-24T05:58:56.370Z,5116.00
2022-09-24T05:59:56.319Z,5124.00
2022-09-24T06:00:56.322Z,5128.00
2022-09-24T06:01:56.385Z,5132.00
2022-09-24T06:02:56.354Z,5120.00
2022-09-24T06:03:56.314Z,5068.00
2022-09-24T06:04:56.264Z,4972.00
2022-09-24T06:05:56.264Z,4848.00
2022-09-24T06:06:56.251Z,4736.00
2022-09-24T06:07:56.239Z,4644.00
2022-09-24T06:08:56.257Z,4576.00
2022-09-24T06:09:56.205Z,4508.00
2022-09-24T06:10:56.203Z,4448.00
2022-09-24T06:11:56.190Z,4384.00
2022-09-24T06:12:56.180Z,4336.00
2022-09-24T06:13:56.214Z,4320.00
2022-09-24T06:14:56.151Z,4352.00
2022-09-24T06:15:56.205Z,4440.00
2022-09-24T06:16:56.120Z,4576.00
2022-09-24T06:17:56.129Z,4760.00
2022-09-24T06:18:56.141Z,4968.00
2022-09-24T06:19:56.107Z,5204.00
2022-09-24T06:20:56.090Z,5440.00
2022-09-24T06:21:56.072Z,5680.00
2022-09-24T06:22:56.100Z,5920.00
2022-09-24T06:23:56.053Z,6136.00
2022-09-24T06:24:56.046Z,6348.00
2022-09-24T06:25:56.040Z,6528.00
2022-09-24T06:26:56.009Z,6708.00
2022-09-24T06:27:56.071Z,6860.00
2022-09-24T06:28:59.530Z,6968.00
2022-09-24T06:29:56.992Z,7028.00
2022-09-24T06:30:56.018Z,7056.00
2022-09-24T06:31:55.994Z,7076.00
2022-09-24T06:32:55.954Z,7132.00
2022-09-24T06:33:55.987Z,7256.00
2022-09-24T06:34:59.177Z,7428.00
2022-09-24T06:35:55.930Z,7632.00
2022-09-24T06:36:55.901Z,7872.00
2022-09-24T06:37:55.891Z,8108.00
2022-09-24T06:38:55.915Z,8344.00
2022-09-24T06:39:55.874Z,8600.00
2022-09-24T06:40:55.909Z,8860.00
2022-09-24T06:41:55.847Z,9152.00
2022-09-24T06:42:55.832Z,9508.00
2022-09-24T06:43:55.863Z,9868.00
2022-09-24T06:44:55.818Z,10176.00
2022-09-24T06:45:55.811Z,10400.00
2022-09-24T06:46:55.843Z,10532.00
2022-09-24T06:47:55.777Z,10640.00
2022-09-24T06:48:55.800Z,10732.00
2022-09-24T06:49:55.763Z,10792.00
2022-09-24T06:50:55.747Z,10848.00
2022-09-24T06:51:55.743Z,10888.00
2022-09-24T06:52:55.716Z,10864.00
2022-09-24T06:53:55.743Z,10748.00
2022-09-24T06:54:55.695Z,10592.00
2022-09-24T06:55:55.700Z,10440.00
2022-09-24T06:56:55.687Z,10316.00
2022-09-24T06:57:55.717Z,10184.00
2022-09-24T06:58:55.652Z,10020.00
2022-09-24T06:59:55.656Z,9824.00
2022-09-24T07:00:55.672Z,9624.00
2022-09-24T07:01:55.673Z,9420.00
2022-09-24T07:02:55.603Z,9248.00
2022-09-24T07:03:55.638Z,9148.00
2022-09-24T07:04:55.585Z,9120.00
2022-09-24T07:05:55.584Z,9152.00
2022-09-24T07:06:55.554Z,9208.00
2022-09-24T07:07:55.562Z,9256.00
2022-09-24T07:08:55.593Z,9292.00
2022-09-24T07:09:55.530Z,9312.00
2022-09-24T07:10:55.525Z,9348.00
2022-09-24T07:11:55.513Z,9404.00
2022-09-24T07:12:55.518Z,9508.00
2022-09-24T07:13:55.522Z,9672.00
2022-09-24T07:14:55.465Z,9892.00
2022-09-24T07:15:55.489Z,10156.00
2022-09-24T07:16:55.467Z,10444.00
2022-09-24T07:17:55.474Z,10740.00
2022-09-24T07:18:55.468Z,11032.00
2022-09-24T07:19:55.446Z,11336.00
2022-09-24T07:20:55.407Z,11652.00
2022-09-24T07:21:55.401Z,11976.00
2022-09-24T07:22:55.424Z,12308.00
2022-09-24T07:23:58.611Z,12636.00
2022-09-24T07:24:55.360Z,12948.00
2022-09-24T07:25:55.357Z,13232.00
2022-09-24T07:26:55.336Z,13476.00
2022-09-24T07:27:55.367Z,13672.00
2022-09-24T07:28:55.313Z,13836.00
2022-09-24T07:29:55.311Z,13956.00
2022-09-24T07:30:55.357Z,14040.00
2022-09-24T07:31:55.286Z,14084.00
2022-09-24T07:32:55.316Z,14116.00
2022-09-24T07:33:55.258Z,14128.00
2022-09-24T07:34:55.248Z,14172.00
2022-09-24T07:35:55.243Z,14252.00
2022-09-24T07:36:55.217Z,14388.00
2022-09-24T07:37:55.259Z,14552.00
2022-09-24T07:38:55.199Z,14704.00
2022-09-24T07:39:55.218Z,14828.00
2022-09-24T07:40:55.237Z,14936.00
2022-09-24T07:41:55.168Z,14976.00
2022-09-24T07:42:55.212Z,14956.00
2022-09-24T07:43:55.151Z,14896.00
2022-09-24T07:44:55.128Z,14824.00
2022-09-24T07:45:55.128Z,14744.00
2022-09-24T07:46:55.164Z,14580.00
2022-09-24T07:47:55.131Z,14336.00
2022-09-24T07:48:55.077Z,13988.00
2022-09-24T07:49:55.088Z,13512.00
2022-09-24T07:50:55.059Z,12964.00
2022-09-24T07:51:55.074Z,12432.00
2022-09-24T07:52:55.043Z,12024.00
2022-09-24T07:53:55.058Z,11812.00
2022-09-24T07:54:55.020Z,11800.00
2022-09-24T07:55:55.018Z,11972.00
2022-09-24T07:56:54.999Z,12268.00
2022-09-24T07:57:54.994Z,12624.00
2022-09-24T07:58:55.014Z,12996.00
2022-09-24T07:59:54.968Z,13344.00
2022-09-24T08:00:54.948Z,13672.00
2022-09-24T08:01:54.994Z,13980.00
2022-09-24T08:02:54.976Z,14296.00
2022-09-24T08:03:55.003Z,14632.00
2022-09-24T08:04:54.912Z,14988.00
2022-09-24T08:05:54.897Z,15364.00
2022-09-24T08:06:54.878Z,15792.00
2022-09-24T08:07:54.880Z,16240.00
2022-09-24T08:08:54.895Z,16728.00
2022-09-24T08:09:54.863Z,17236.00
2022-09-24T08:10:54.849Z,17920.00
2022-09-24T08:11:54.843Z,18432.00
2022-09-24T08:12:54.808Z,18976.00
2022-09-24T08:13:54.846Z,19616.00
2022-09-24T08:14:54.788Z,20288.00
2022-09-24T08:15:54.828Z,20992.00
2022-09-24T08:16:54.778Z,21760.00
2022-09-24T08:17:54.775Z,22624.00
2022-09-24T08:18:54.793Z,23520.00
2022-09-24T08:19:54.760Z,24480.00
2022-09-24T08:20:54.725Z,25632.00
2022-09-24T08:21:54.705Z,26272.00
2022-09-24T08:22:54.697Z,27328.00
2022-09-24T08:23:54.728Z,27712.00
2022-09-24T08:24:54.685Z,28064.00
2022-09-24T08:25:54.687Z,27616.00
2022-09-24T08:26:54.652Z,27968.00
2022-09-24T08:27:54.649Z,28736.00
2022-09-24T08:28:54.675Z,30208.00
2022-09-24T08:29:54.618Z,31840.00
2022-09-24T08:30:54.656Z,34592.00
2022-09-24T08:31:54.601Z,34080.00
2022-09-24T08:32:54.587Z,34304.00
2022-09-24T08:33:54.621Z,34656.00
2022-09-24T08:34:54.589Z,35744.00
2022-09-24T08:35:54.563Z,36000.00
2022-09-24T08:36:54.539Z,38016.00
2022-09-24T08:37:54.544Z,40192.00
2022-09-24T08:38:54.567Z,42080.00
2022-09-24T08:39:54.514Z,44576.00
2022-09-24T08:40:54.546Z,31904.00
2022-09-24T08:41:54.493Z,55968.00
2022-09-24T08:42:54.475Z,43840.00
2022-09-24T08:43:54.498Z,43264.00
2022-09-24T08:44:54.450Z,50848.00
2022-09-24T08:45:54.438Z,65024.00
2022-09-24T08:46:54.496Z,49568.00
2022-09-24T08:47:54.451Z,53120.00
2022-09-24T08:48:54.448Z,50656.00
2022-09-24T08:49:54.398Z,43584.00
2022-09-24T08:50:54.386Z,37984.00
2022-09-24T08:51:54.384Z,43104.00
2022-09-24T08:52:54.372Z,42464.00
2022-09-24T08:53:54.400Z,44096.00
2022-09-24T08:54:54.335Z,38464.00
2022-09-24T08:55:54.333Z,49440.00
2022-09-24T08:56:54.315Z,54912.00
2022-09-24T08:57:54.304Z,54176.00
2022-09-24T08:58:54.335Z,51168.00
2022-09-24T08:59:54.294Z,43040.00
2022-09-24T09:00:54.269Z,39200.00
2022-09-24T09:01:54.392Z,39232.00
2022-09-24T09:02:54.300Z,36896.00
2022-09-24T09:03:54.246Z,37152.00
2022-09-24T09:04:54.266Z,32288.00
2022-09-24T09:05:54.219Z,34176.00
2022-09-24T09:06:54.204Z,34112.00
2022-09-24T09:07:54.181Z,37280.00
2022-09-24T09:09:06.877Z,36032.00
2022-09-24T09:09:55.165Z,38336.00
2022-09-24T09:10:54.164Z,40512.00
2022-09-24T09:11:54.160Z,58560.00
2022-09-24T09:12:54.145Z,41280.00
2022-09-24T09:13:54.173Z,32928.00
2022-09-24T09:14:54.108Z,25344.00
2022-09-24T09:15:54.180Z,23520.00
2022-09-24T09:16:54.093Z,23392.00
2022-09-24T09:17:54.085Z,23808.00
2022-09-24T09:18:54.065Z,24320.00
2022-09-24T09:19:54.098Z,27040.00
2022-09-24T09:20:54.048Z,28768.00
2022-09-24T09:21:54.045Z,25568.00
2022-09-24T09:22:54.039Z,24576.00
2022-09-24T09:23:54.021Z,26400.00
2022-09-24T09:24:54.047Z,30432.00
2022-09-24T09:25:53.996Z,34816.00
2022-09-24T09:26:54.008Z,37600.00
2022-09-24T09:27:53.961Z,34848.00
2022-09-24T09:28:53.957Z,33792.00
2022-09-24T09:29:53.983Z,36352.00
2022-09-24T09:30:53.961Z,33824.00
2022-09-24T09:31:56.470Z,32928.00
2022-09-24T09:32:53.954Z,32896.00
2022-09-24T09:33:53.903Z,31808.00
2022-09-24T09:34:53.933Z,30816.00
2022-09-24T09:35:53.874Z,28736.00
2022-09-24T09:36:53.884Z,26944.00
2022-09-24T09:37:53.859Z,26080.00
2022-09-24T09:38:53.854Z,25696.00
2022-09-24T09:39:53.869Z,25440.00
2022-09-24T09:40:53.901Z,25216.00
2022-09-24T09:41:53.813Z,24960.00
2022-09-24T09:42:53.800Z,24576.00
2022-09-24T09:43:53.829Z,24160.00
2022-09-24T09:44:53.779Z,23808.00
2022-09-24T09:45:53.758Z,23712.00
2022-09-24T09:46:53.798Z,23808.00
2022-09-24T09:47:53.746Z,23968.00
2022-09-24T09:48:53.761Z,24160.00
2022-09-24T09:49:53.728Z,24288.00
2022-09-24T09:50:53.708Z,24352.00
2022-09-24T09:51:53.697Z,24448.00
2022-09-24T09:52:53.686Z,24576.00
2022-09-24T09:53:53.704Z,24768.00
2022-09-24T09:54:53.666Z,24992.00
2022-09-24T09:55:53.651Z,25344.00
2022-09-24T09:56:53.629Z,25952.00
2022-09-24T09:57:53.643Z,27328.00
2022-09-24T09:58:53.653Z,28832.00
2022-09-24T09:59:53.604Z,29856.00
2022-09-24T10:00:53.598Z,29760.00
2022-09-24T10:01:53.634Z,29664.00
2022-09-24T10:02:53.715Z,29952.00
2022-09-24T10:03:53.549Z,29472.00
2022-09-24T10:04:53.579Z,28960.00
2022-09-24T10:05:53.525Z,28448.00
2022-09-24T10:06:53.544Z,28096.00
2022-09-24T10:07:53.516Z,27616.00
2022-09-24T10:08:53.537Z,27040.00
2022-09-24T10:09:53.486Z,26496.00
2022-09-24T10:10:53.488Z,26016.00
2022-09-24T10:11:53.467Z,26176.00
2022-09-24T10:12:53.458Z,26336.00
2022-09-24T10:13:53.500Z,26816.00
2022-09-24T10:14:53.440Z,27136.00
2022-09-24T10:15:53.494Z,27424.00
2022-09-24T10:16:53.411Z,27424.00
2022-09-24T10:17:53.408Z,27296.00
2022-09-24T10:18:53.455Z,27392.00
2022-09-24T10:19:53.379Z,27040.00
2022-09-24T10:20:53.369Z,27232.00
2022-09-24T10:21:53.359Z,27232.00
2022-09-24T10:22:53.366Z,27680.00
2022-09-24T10:23:53.380Z,27872.00
2022-09-24T10:24:53.326Z,28192.00
2022-09-24T10:25:53.313Z,28672.00
2022-09-24T10:26:53.301Z,29216.00
2022-09-24T10:27:53.303Z,29792.00
2022-09-24T10:28:53.281Z,31072.00
2022-09-24T10:29:53.302Z,32000.00
2022-09-24T10:30:53.316Z,32832.00
2022-09-24T10:31:53.261Z,33824.00
2022-09-24T10:32:53.243Z,34272.00
2022-09-24T10:33:53.268Z,34944.00
2022-09-24T10:34:53.203Z,35616.00
2022-09-24T10:35:53.194Z,47296.00
2022-09-24T10:36:53.180Z,47520.00
2022-09-24T10:37:53.178Z,42176.00
2022-09-24T10:38:53.207Z,44000.00
2022-09-24T10:39:53.157Z,49280.00
2022-09-24T10:40:53.203Z,47040.00
2022-09-24T10:41:53.145Z,47744.00
2022-09-24T10:42:53.137Z,46848.00
2022-09-24T10:43:53.265Z,44576.00
2022-09-24T10:44:53.138Z,42528.00
2022-09-24T10:45:53.085Z,41184.00
2022-09-24T10:46:53.139Z,43264.00
2022-09-24T10:47:53.065Z,41120.00
2022-09-24T10:48:53.064Z,37824.00
2022-09-24T10:49:53.091Z,36032.00
2022-09-24T10:50:53.031Z,35552.00
2022-09-24T10:51:53.030Z,35232.00
2022-09-24T10:52:53.017Z,35360.00
2022-09-24T10:53:53.000Z,34560.00
2022-09-24T10:54:53.031Z,33728.00
2022-09-24T10:55:52.984Z,33440.00
2022-09-24T10:56:52.970Z,33184.00
2022-09-24T10:57:52.957Z,32864.00
2022-09-24T10:58:52.957Z,32896.00
2022-09-24T10:59:52.975Z,33632.00
2022-09-24T11:00:52.938Z,34880.00
2022-09-24T11:01:53.010Z,36256.00
2022-09-24T11:02:52.934Z,39392.00
2022-09-24T11:03:52.936Z,40192.00
2022-09-24T11:04:52.919Z,35840.00
2022-09-24T11:05:52.879Z,35808.00
2022-09-24T11:06:52.856Z,36128.00
2022-09-24T11:07:52.847Z,37856.00
2022-09-24T11:08:52.834Z,36992.00
2022-09-24T11:09:52.858Z,36064.00
2022-09-24T11:10:52.810Z,34688.00
2022-09-24T11:11:52.810Z,34144.00
2022-09-24T11:12:52.792Z,31936.00
2022-09-24T11:13:52.786Z,30528.00
2022-09-24T11:14:52.813Z,30272.00
2022-09-24T11:15:52.821Z,30752.00
2022-09-24T11:16:52.754Z,33568.00
2022-09-24T11:17:52.743Z,34496.00
2022-09-24T11:18:52.773Z,36256.00
2022-09-24T11:19:52.720Z,39776.00
2022-09-24T11:20:52.714Z,54848.00
2022-09-24T11:21:52.694Z,53184.00
2022-09-24T11:22:52.713Z,55712.00
2022-09-24T11:23:52.716Z,42912.00
2022-09-24T11:24:52.666Z,53952.00
2022-09-24T11:25:52.645Z,47264.00
2022-09-24T11:26:52.661Z,48736.00
2022-09-24T11:27:52.624Z,38560.00
2022-09-24T11:28:52.664Z,38080.00
2022-09-24T11:29:52.607Z,38496.00
2022-09-24T11:30:52.683Z,43520.00
2022-09-24T11:31:52.574Z,45536.00
2022-09-24T11:32:52.576Z,52640.00
2022-09-24T11:33:52.570Z,50208.00
2022-09-24T11:34:52.593Z,46816.00
2022-09-24T11:35:52.543Z,44992.00
2022-09-24T11:36:52.539Z,44480.00
2022-09-24T11:37:52.534Z,47488.00
2022-09-24T11:38:52.517Z,46560.00
2022-09-24T11:39:52.529Z,44896.00
2022-09-24T11:40:52.517Z,39872.00
2022-09-24T11:41:52.464Z,40896.00
2022-09-24T11:42:52.456Z,41824.00
2022-09-24T11:43:52.492Z,40160.00
2022-09-24T11:44:52.441Z,44064.00
2022-09-24T11:45:52.430Z,42848.00
2022-09-24T11:46:52.449Z,41856.00
2022-09-24T11:47:52.413Z,40992.00
2022-09-24T11:48:52.477Z,40384.00
2022-09-24T11:49:52.376Z,39872.00
2022-09-24T11:50:52.383Z,39360.00
2022-09-24T11:51:52.367Z,39072.00
2022-09-24T11:52:52.363Z,38432.00
2022-09-24T11:53:52.388Z,37792.00
2022-09-24T11:54:52.348Z,37312.00
2022-09-24T11:55:52.335Z,36416.00
2022-09-24T11:56:52.318Z,35968.00
2022-09-24T11:57:52.313Z,35744.00
2022-09-24T11:58:52.342Z,35296.00
2022-09-24T11:59:52.285Z,35136.00
2022-09-24T12:00:52.267Z,35104.00
2022-09-24T12:01:52.342Z,34912.00
2022-09-24T12:02:52.303Z,34816.00
2022-09-24T12:03:52.282Z,34848.00
2022-09-24T12:04:52.228Z,34848.00
2022-09-24T12:05:52.217Z,27712.00
2022-09-24T12:06:52.219Z,29920.00
2022-09-24T12:07:52.196Z,34624.00
2022-09-24T12:08:52.219Z,34368.00
2022-09-24T12:09:52.165Z,34240.00
2022-09-24T12:10:52.173Z,34176.00
2022-09-24T12:11:52.149Z,33920.00
2022-09-24T12:12:52.138Z,33632.00
2022-09-24T12:13:52.187Z,33472.00
2022-09-24T12:14:52.132Z,33376.00
2022-09-24T12:15:52.141Z,33312.00
2022-09-24T12:16:52.095Z,33248.00
2022-09-24T12:17:52.075Z,33120.00
2022-09-24T12:18:52.110Z,32896.00
2022-09-24T12:19:52.058Z,32864.00
2022-09-24T12:20:52.059Z,32768.00
2022-09-24T12:21:52.032Z,32800.00